This is the latest recevied weather packets stored in our database for station/object SV3CQY. If no packets are shown the sender has not sent any weather packets the latest 10 day(s).
| Time | Temp. | Humidity | Pressure | Rain* | Wind** | Luminosity | Snow |
|---|---|---|---|---|---|---|---|
| 1777338614 | 13.33° C | 76% | 1016.4 hPa | 0 mm | - | - | - |
| 1777337134 | 13.89° C | 76% | 1016.5 hPa | 0 mm | - | - | - |
| 1777336813 | 13.89° C | 77% | 1016.5 hPa | 0 mm | - | - | - |
| 1777333527 | 14.44° C | 73% | 1016.8 hPa | 0 mm | - | - | - |
| 1777332631 | 14.44° C | 74% | 1016.7 hPa | 0 mm | - | - | - |
| 1777331734 | 14.44° C | 72% | 1016.7 hPa | 0 mm | - | - | - |
| 1777331412 | 14.44° C | 71% | 1016.7 hPa | 0 mm | - | - | - |
| 1777330829 | 15° C | 71% | 1016.7 hPa | 0 mm | - | - | - |
| 1777328714 | 13.89° C | 73% | 1016.8 hPa | 0 mm | - | - | - |
| 1777328413 | 13.89° C | 73% | 1016.8 hPa | 0 mm | - | - | - |
| 1777322112 | 16.67° C | 64% | 1017.3 hPa | 0 mm | - | - | - |
| 1777321511 | 16.67° C | 64% | 1017.3 hPa | 0 mm | - | - | - |
| 1777321211 | 16.67° C | 63% | 1017.2 hPa | 0 mm | - | - | - |
| 1777320311 | 17.22° C | 63% | 1017.3 hPa | 0 mm | - | - | - |
| 1777315817 | 18.33° C | 59% | 1016.7 hPa | 0 mm | - | - | - |
| 1777314308 | 19.44° C | 55% | 1016.3 hPa | 0 mm | - | - | - |
| 1777313728 | 19.44° C | 54% | 1016.1 hPa | 0 mm | - | - | - |
| 1777310413 | 21.67° C | 48% | 1015.3 hPa | 0 mm | - | - | - |
| 1777309809 | 22.22° C | 46% | 1015.1 hPa | 0 mm | - | - | - |
| 1777306529 | 23.89° C | 43% | 1014.9 hPa | 0 mm | - | - | - |
| 1777306211 | 23.89° C | 42% | 1014.9 hPa | 0 mm | - | - | - |
| 1777303214 | 24.44° C | 40% | 1015 hPa | 0 mm | - | - | - |
| 1777301411 | 25° C | 38% | 1015.2 hPa | 0 mm | - | - | - |
| 1777300510 | 25° C | 38% | 1015.2 hPa | 0 mm | - | - | - |
| 1777297809 | 25° C | 37% | 1015.3 hPa | 0 mm | - | - | - |
* Rain latest hour (hover to see other rain measurements)
** Current wind speed in m/s (hover to see current wind gust speed)